WBGG Airport Information

Runway Information
Runway 07 Length 8051 ft width 151 ft
Elevation 88 ft Threshold 0 ft Heading 68
Runway 25 Length 8051 ft Width 151 ft
Elevation 75 ft Threshold 320 ft Heading 248
Airport Frequencies
Type ACC Name RDR Frequency 134.5 MHZ
Type APP Name APP DIRECT Frequency 120.2 MHZ
Type ATIS Name ATIS Frequency 128.4 MHZ
Type GND Name GND Frequency 121.9 MHZ
Type TWR Name TWR Frequency 118.1 MHZ
Airport Navaids
Type NDB Name Kuching Frequency 402 KHZ
Type VOR-DME Name Kuching Frequency 114500 KHZ
Airport Weather Information & NOTAM
ADDS - METARS form results

(2016 UTC 13 June 2021)
Data provider http://aviationweather.gov/metar/data/
 
METAR text: WBGG 132000Z 00000KT 9999 FEW020 26/24 Q1009 NOSIG
Conditions at: WBGG (KUCHING (CIV/MIL, MY) observed 2000 UTC 13 June 2021
Temperature: 26.0°C (79°F)
Dewpoint: 24.0°C (75°F) [RH = 89%]
Pressure (altimeter): 29.79 inches Hg (1009.0 mb)
Winds: calm
Visibility: 6 or more miles (10+ km)
Ceiling: at least 12,000 feet AGL
Clouds: few clouds at 2000 feet AGL
Weather: no significant weather observed at this time

METAR text: WBGG 131930Z 00000KT 9999 FEW020 26/24 Q1010 NOSIG
Conditions at: WBGG (KUCHING (CIV/MIL, MY) observed 1930 UTC 13 June 2021
Temperature: 26.0°C (79°F)
Dewpoint: 24.0°C (75°F) [RH = 89%]
Pressure (altimeter): 29.82 inches Hg (1010.0 mb)
Winds: calm
Visibility: 6 or more miles (10+ km)
Ceiling: at least 12,000 feet AGL
Clouds: few clouds at 2000 feet AGL
Weather: no significant weather observed at this time

Forecast for: WBGG (KUCHING (CIV/MIL, MY)
Text: TAF WBGG 131700Z 1318/1418 VRB03KT 9999 FEW020
Forecast period: 1800 UTC 13 June 2021 to 1800 UTC 14 June 2021
Forecast type: FROM: standard forecast or significant change
Winds: variable direction winds at 3 MPH (3 knots; 1.5 m/s)
Visibility: 6 or more miles (10+ km)
Ceiling: at least 12,000 feet AGL
Clouds: few clouds at 2000 feet AGL
Weather: no significant weather forecast for this period
Text: TEMPO 1318/1322 5000 -RA FEW005
Forecast period: 1800 to 2200 UTC 13 June 2021
Forecast type: TEMPORARY: The following changes expected for less than half the time period
Visibility: 3 miles (5 km)
Ceiling: at least 12,000 feet AGL
Clouds: few clouds at 500 feet AGL
Weather: -RA  (light rain)